Time;durP1;ratioP1;P1;durP2;ratioP2;P2;SDS_P1;SDS_P2;PMS_P1;PMS_P2;Temp;Humidity;BMP_temperature;BMP_pressure;BME280_temperature;BME280_humidity;BME280_pressure;Samples;Min_cycle;Max_cycle;Signal;HPM_P1;HPM_P2
2021/04/01 00:01:49;;;;;;;54.10;32.75;;;;;;;9.24;63.10;100321.60;148301;1148;104433;-77
2021/04/01 00:04:52;;;;;;;58.45;36.45;;;;;;;9.19;63.07;100320.34;147757;1147;104529;-76
2021/04/01 00:07:56;;;;;;;78.02;46.10;;;;;;;9.14;62.97;100314.59;147496;1148;104445;-76
2021/04/01 00:11:00;;;;;;;61.73;37.42;;;;;;;9.09;62.85;100311.55;147575;1146;104479;-76
2021/04/01 00:14:04;;;;;;;55.78;34.27;;;;;;;9.01;63.16;100305.09;147795;1147;104534;-77
2021/04/01 00:17:09;;;;;;;57.35;34.30;;;;;;;8.98;63.06;100293.89;147754;1147;104455;-77
2021/04/01 00:20:17;;;;;;;55.75;33.78;;;;;;;8.95;62.62;100294.16;147782;1148;104590;-76
2021/04/01 00:23:20;;;;;;;58.83;35.15;;;;;;;8.88;62.63;100283.26;147799;1147;104468;-80
2021/04/01 00:26:23;;;;;;;65.47;37.33;;;;;;;8.80;63.18;100281.30;147759;1148;104540;-78
2021/04/01 00:29:27;;;;;;;61.50;37.10;;;;;;;8.75;63.56;100282.70;147707;1148;104556;-78
2021/04/01 00:32:30;;;;;;;55.85;35.50;;;;;;;8.69;62.82;100281.45;147750;1148;104464;-79
2021/04/01 00:35:33;;;;;;;63.47;35.30;;;;;;;8.63;62.69;100269.55;147727;1148;104630;-77
2021/04/01 00:38:36;;;;;;;54.63;31.73;;;;;;;8.64;63.67;100263.26;147770;1147;104476;-79
2021/04/01 00:41:41;;;;;;;53.60;33.83;;;;;;;8.64;63.47;100262.39;147727;1147;104592;-79
2021/04/01 00:44:45;;;;;;;60.73;36.33;;;;;;;8.64;62.70;100257.94;147741;1147;104546;-82
2021/04/01 00:47:52;;;;;;;59.83;36.05;;;;;;;8.63;63.11;100250.92;147784;1147;104486;-76
2021/04/01 00:50:55;;;;;;;59.40;34.80;;;;;;;8.63;63.48;100258.07;147792;1147;104629;-75
2021/04/01 00:54:00;;;;;;;58.45;35.63;;;;;;;8.60;62.67;100248.56;147672;1148;104470;-75
2021/04/01 00:57:04;;;;;;;53.92;35.83;;;;;;;8.54;63.32;100233.14;147713;1147;104467;-78
2021/04/01 01:00:11;;;;;;;59.75;35.33;;;;;;;8.50;63.28;100231.75;147726;1147;104546;-76
2021/04/01 01:03:14;;;;;;;55.60;36.20;;;;;;;8.45;63.46;100228.69;147399;1146;104549;-78
2021/04/01 01:06:18;;;;;;;60.43;35.88;;;;;;;8.41;63.41;100224.58;147713;1148;104943;-75
2021/04/01 01:09:21;;;;;;;58.63;37.57;;;;;;;8.36;63.02;100219.69;147621;1148;104514;-79
2021/04/01 01:12:25;;;;;;;63.48;37.17;;;;;;;8.34;63.44;100215.50;147761;1147;104473;-79
2021/04/01 01:15:29;;;;;;;61.03;37.10;;;;;;;8.28;62.89;100214.23;147486;1147;104541;-80
2021/04/01 01:18:33;;;;;;;54.90;35.05;;;;;;;8.22;63.76;100212.14;147602;1147;104562;-73
2021/04/01 01:21:36;;;;;;;54.40;34.05;;;;;;;8.19;62.63;100202.61;147701;1146;104691;-73
2021/04/01 01:24:39;;;;;;;56.88;35.90;;;;;;;8.16;62.89;100197.59;147646;1147;104532;-73
2021/04/01 01:27:42;;;;;;;62.00;37.53;;;;;;;8.10;63.21;100203.43;147599;1147;104929;-74
2021/04/01 01:30:45;;;;;;;57.40;35.37;;;;;;;8.06;63.70;100191.41;147448;1147;104547;-71
2021/04/01 01:33:49;;;;;;;55.10;32.60;;;;;;;8.03;63.99;100189.04;147489;1147;104844;-72
2021/04/01 01:36:53;;;;;;;60.40;32.95;;;;;;;8.01;62.89;100193.66;147573;1147;104463;-73
2021/04/01 01:39:56;;;;;;;58.47;34.13;;;;;;;8.03;62.82;100194.35;147511;1147;104447;-77
2021/04/01 01:43:01;;;;;;;56.70;35.83;;;;;;;8.03;63.53;100181.06;147740;1146;104888;-78
2021/04/01 01:46:05;;;;;;;60.20;35.33;;;;;;;8.04;63.38;100183.59;147564;1147;104911;-79
2021/04/01 01:49:09;;;;;;;54.35;33.70;;;;;;;8.03;63.05;100170.44;147613;1147;104496;-79
2021/04/01 01:52:12;;;;;;;52.93;32.88;;;;;;;8.03;63.87;100170.44;147639;1147;104702;-78
2021/04/01 01:55:16;;;;;;;52.88;32.78;;;;;;;8.00;63.05;100168.05;147705;1147;104510;-79
2021/04/01 01:58:21;;;;;;;54.38;35.28;;;;;;;7.93;63.09;100164.25;147735;1147;104472;-77
2021/04/01 02:01:25;;;;;;;54.98;33.73;;;;;;;7.90;62.78;100160.06;147615;1148;104538;-76
2021/04/01 02:04:29;;;;;;;51.48;32.63;;;;;;;7.85;63.30;100157.84;147570;1147;104547;-76
2021/04/01 02:07:35;;;;;;;53.77;32.30;;;;;;;7.82;63.82;100159.92;147768;1147;104550;-76
2021/04/01 02:10:41;;;;;;;48.60;30.93;;;;;;;7.80;63.33;100156.57;147662;1147;104558;-76
2021/04/01 02:13:46;;;;;;;52.17;31.82;;;;;;;7.76;62.87;100158.66;147470;1147;104463;-78
2021/04/01 02:16:49;;;;;;;52.23;32.80;;;;;;;7.69;63.25;100159.34;147694;1147;104598;-78
2021/04/01 02:19:58;;;;;;;54.58;32.48;;;;;;;7.63;62.82;100160.73;147831;1147;104499;-77
2021/04/01 02:23:01;;;;;;;47.05;30.02;;;;;;;7.61;63.60;100150.23;147495;1147;104729;-76
2021/04/01 02:26:06;;;;;;;46.67;29.90;;;;;;;7.58;63.17;100161.14;147392;1147;104583;-76
2021/04/01 02:29:09;;;;;;;49.67;31.30;;;;;;;7.55;63.40;100157.92;147451;1147;104592;-77
2021/04/01 02:32:12;;;;;;;50.00;29.10;;;;;;;7.54;64.15;100150.91;147524;1148;104535;-77
2021/04/01 02:35:16;;;;;;;46.68;28.85;;;;;;;7.56;63.49;100148.96;147512;1148;104457;-76
2021/04/01 02:38:19;;;;;;;41.13;26.50;;;;;;;7.58;63.44;100154.97;147563;1147;104531;-76
2021/04/01 02:41:22;;;;;;;49.25;30.55;;;;;;;7.60;63.56;100142.40;147822;1147;104550;-74
2021/04/01 02:44:25;;;;;;;50.23;30.83;;;;;;;7.62;63.58;100140.44;147742;1147;104982;-77
2021/04/01 02:47:29;;;;;;;50.33;29.48;;;;;;;7.65;63.46;100137.52;147613;1147;104449;-75
2021/04/01 02:50:32;;;;;;;45.70;29.25;;;;;;;7.65;64.10;100134.88;147543;1147;104545;-76
2021/04/01 02:53:35;;;;;;;45.57;28.57;;;;;;;7.63;63.24;100137.66;147731;1147;104518;-75
2021/04/01 02:56:38;;;;;;;40.80;26.97;;;;;;;7.60;64.12;100127.33;147858;1147;104497;-75
2021/04/01 02:59:42;;;;;;;42.60;26.82;;;;;;;7.58;64.25;100133.73;147650;1147;104476;-74
2021/04/01 03:02:48;;;;;;;43.00;27.35;;;;;;;7.52;64.31;100123.66;147511;1147;104550;-75
2021/04/01 03:05:51;;;;;;;45.98;27.73;;;;;;;7.46;64.12;100120.56;147676;1147;104559;-76
2021/04/01 03:08:54;;;;;;;45.50;26.07;;;;;;;7.42;62.95;100124.47;147612;1147;104575;-77
2021/04/01 03:11:57;;;;;;;41.77;26.55;;;;;;;7.36;63.62;100130.33;147571;1146;104627;-77
2021/04/01 03:15:01;;;;;;;44.30;28.20;;;;;;;7.34;63.79;100121.66;147569;1147;104481;-75
2021/04/01 03:18:05;;;;;;;43.08;28.32;;;;;;;7.32;63.02;100120.96;147664;1146;104498;-74
2021/04/01 03:21:09;;;;;;;43.80;27.80;;;;;;;7.26;62.96;100113.55;147719;1146;104529;-73
2021/04/01 03:24:13;;;;;;;45.05;28.10;;;;;;;7.20;63.75;100117.58;147544;1147;104611;-74
2021/04/01 03:27:16;;;;;;;43.83;28.17;;;;;;;7.14;64.20;100117.27;147755;1147;104594;-74
2021/04/01 03:30:20;;;;;;;43.23;28.12;;;;;;;7.11;63.62;100110.42;147756;1147;104547;-72
2021/04/01 03:33:23;;;;;;;45.00;27.82;;;;;;;7.07;63.67;100120.45;147751;1147;104553;-73
2021/04/01 03:36:27;;;;;;;46.95;28.10;;;;;;;7.03;63.44;100119.05;147761;1147;104551;-74
2021/04/01 03:39:30;;;;;;;45.65;27.15;;;;;;;7.08;63.46;100115.98;147776;1146;104597;-74
2021/04/01 03:42:34;;;;;;;42.25;26.27;;;;;;;7.11;63.56;100109.59;147770;1146;104489;-74
2021/04/01 03:45:38;;;;;;;46.02;26.37;;;;;;;7.14;62.86;100104.86;147486;1147;104473;-76
2021/04/01 03:48:41;;;;;;;44.00;27.93;;;;;;;7.18;63.33;100100.09;147650;1147;104563;-75
2021/04/01 03:51:44;;;;;;;45.65;28.23;;;;;;;7.19;63.16;100091.17;147694;1147;104543;-76
2021/04/01 03:54:50;;;;;;;44.75;27.60;;;;;;;7.16;63.24;100094.08;147743;1145;104562;-76
2021/04/01 03:57:58;;;;;;;42.25;27.15;;;;;;;7.12;62.95;100093.54;147509;1147;104471;-70
2021/04/01 04:01:23;;;;;;;44.15;27.45;;;;;;;7.11;63.80;100088.36;147487;1148;104591;-74
2021/04/01 04:08:03;;;;;;;41.95;27.30;;;;;;;7.01;63.29;100085.67;147619;1147;104481;-75
2021/04/01 04:11:24;;;;;;;40.17;25.67;;;;;;;6.94;62.87;100085.36;147756;1147;104608;-75
2021/04/01 04:14:31;;;;;;;39.63;25.70;;;;;;;6.91;62.91;100075.03;147505;1147;104597;-76
2021/04/01 04:17:34;;;;;;;46.85;29.90;;;;;;;6.86;63.88;100070.11;147495;1147;104464;-75
2021/04/01 04:20:38;;;;;;;45.10;29.35;;;;;;;6.83;64.66;100073.05;147441;1147;104475;-74
2021/04/01 04:23:42;;;;;;;45.73;28.05;;;;;;;6.81;63.91;100064.39;147403;1146;104458;-74
2021/04/01 04:26:45;;;;;;;48.40;29.87;;;;;;;6.82;64.52;100057.27;147318;1147;104629;-75
2021/04/01 04:29:59;;;;;;;49.85;30.80;;;;;;;6.83;63.76;100049.18;147381;1147;104537;-74
2021/04/01 04:33:02;;;;;;;46.65;29.75;;;;;;;6.83;64.27;100043.87;147742;1147;104588;-73
2021/04/01 04:36:08;;;;;;;44.15;29.90;;;;;;;6.80;63.44;100043.30;147811;1147;104449;-74
2021/04/01 04:39:11;;;;;;;45.35;29.30;;;;;;;6.81;63.59;100039.66;147915;1147;104546;-77
2021/04/01 04:42:15;;;;;;;50.58;28.25;;;;;;;6.84;63.45;100039.41;147856;1147;104658;-74
2021/04/01 04:45:18;;;;;;;47.98;27.30;;;;;;;6.92;63.41;100028.95;147822;1147;104606;-74
2021/04/01 04:48:22;;;;;;;42.13;26.87;;;;;;;7.01;63.64;100035.27;147797;1147;104444;-74
2021/04/01 04:51:25;;;;;;;47.67;29.07;;;;;;;7.11;63.51;100036.13;147876;1147;105138;-73
2021/04/01 04:54:30;;;;;;;43.75;28.15;;;;;;;7.21;63.54;100031.67;147832;1146;104547;-74
2021/04/01 04:57:39;;;;;;;45.50;27.87;;;;;;;7.32;63.97;100037.86;147597;1147;104526;-78
2021/04/01 05:00:56;;;;;;;44.38;28.05;;;;;;;7.40;63.52;100028.20;147442;1147;104590;-82
2021/04/01 05:07:21;;;;;;;43.90;29.15;;;;;;;7.54;64.03;100026.13;147721;1147;104539;-78
2021/04/01 05:10:24;;;;;;;38.65;26.12;;;;;;;7.58;64.00;100019.55;147759;1146;104664;-81
2021/04/01 05:13:27;;;;;;;42.95;28.17;;;;;;;7.64;63.96;100024.30;147716;1147;104511;-80
2021/04/01 05:16:30;;;;;;;41.03;27.43;;;;;;;7.67;63.58;100011.59;147579;1147;104490;-82
2021/04/01 05:19:35;;;;;;;44.75;29.52;;;;;;;7.72;64.19;100019.15;147732;1147;104547;-77
2021/04/01 05:22:42;;;;;;;43.92;29.10;;;;;;;7.81;64.71;100014.80;147822;1147;104468;-78
2021/04/01 05:25:47;;;;;;;44.20;29.95;;;;;;;7.91;63.70;100009.47;147536;1148;104541;-80
2021/04/01 05:28:52;;;;;;;45.10;29.67;;;;;;;8.00;64.71;100011.28;147642;1147;104707;-77
2021/04/01 05:31:56;;;;;;;41.37;26.00;;;;;;;8.11;64.63;100004.98;147790;1147;104559;-78
2021/04/01 05:35:01;;;;;;;41.80;26.27;;;;;;;8.27;64.63;100002.54;147650;1147;104553;-80
2021/04/01 05:38:04;;;;;;;36.73;25.10;;;;;;;8.45;63.88;99995.53;147757;1148;104476;-76
2021/04/01 05:41:10;;;;;;;41.75;25.92;;;;;;;8.61;64.97;99996.73;147578;1147;104552;-71
2021/04/01 05:44:18;;;;;;;39.88;26.65;;;;;;;8.77;64.69;99996.08;147512;1147;104552;-83
2021/04/01 05:47:29;;;;;;;42.37;27.70;;;;;;;8.92;64.68;99988.45;147750;1147;104470;-82
2021/04/01 05:50:44;;;;;;;37.33;25.97;;;;;;;9.09;65.00;99990.30;147714;1147;104519;-83
2021/04/01 06:01:19;;;;;;;41.15;28.20;;;;;;;9.71;65.67;99976.23;147749;1148;104504;-72
2021/04/01 06:04:29;;;;;;;41.18;25.35;;;;;;;9.92;66.17;99975.89;147719;1147;104503;-76
2021/04/01 06:07:39;;;;;;;36.60;24.35;;;;;;;10.17;66.48;99975.05;147844;1147;104585;-75
2021/04/01 06:10:43;;;;;;;44.08;28.87;;;;;;;10.48;65.68;99969.25;147726;1146;104553;-76
2021/04/01 06:17:23;;;;;;;46.37;32.45;;;;;;;11.10;65.48;99960.12;147695;1147;104643;-72
2021/04/01 06:20:32;;;;;;;46.18;31.70;;;;;;;11.35;65.96;99955.65;147879;1146;104553;-74
2021/04/01 06:23:42;;;;;;;48.05;33.63;;;;;;;11.60;66.11;99959.17;147784;1147;104525;-71
2021/04/01 06:26:55;;;;;;;48.35;33.65;;;;;;;11.82;65.55;99957.67;147787;1147;104450;-74
2021/04/01 06:30:13;;;;;;;48.40;32.90;;;;;;;12.04;65.98;99968.70;147602;1146;104546;-74
2021/04/01 06:33:21;;;;;;;49.93;33.20;;;;;;;12.19;66.19;99961.65;147721;1146;104528;-76
2021/04/01 06:36:26;;;;;;;43.08;29.95;;;;;;;12.31;65.94;99959.44;147744;1147;104551;-73
2021/04/01 06:39:30;;;;;;;42.20;29.00;;;;;;;12.41;65.73;99961.92;147261;1147;104598;-74
2021/04/01 06:42:42;;;;;;;47.30;31.27;;;;;;;12.47;65.75;99959.41;147444;1147;104469;-76
2021/04/01 06:45:53;;;;;;;45.28;29.95;;;;;;;12.59;65.77;99957.18;147398;1147;104454;-74
2021/04/01 06:52:27;;;;;;;48.80;32.70;;;;;;;12.72;65.64;99951.25;147601;1147;104630;-73
2021/04/01 06:55:35;;;;;;;40.98;29.35;;;;;;;12.79;65.44;99949.55;147734;1147;104479;-76
2021/04/01 06:58:57;;;;;;;44.13;30.02;;;;;;;12.85;65.49;99943.48;147723;1147;104452;-73
2021/04/01 07:02:13;;;;;;;40.85;29.20;;;;;;;12.99;65.57;99954.46;147811;1147;104495;-75
2021/04/01 07:05:24;;;;;;;43.17;29.87;;;;;;;13.17;65.58;99947.00;147355;1148;104675;-76
2021/04/01 07:08:41;;;;;;;;;;;;;;;13.39;65.65;99950.72;147405;1147;104447;-73
2021/04/01 07:11:44;;;;;;;48.65;30.80;;;;;;;13.64;65.44;99954.03;147516;1147;104505;-76
2021/04/01 07:14:49;;;;;;;46.00;31.07;;;;;;;13.87;65.26;99937.91;147556;1147;104545;-76
2021/04/01 07:18:12;;;;;;;36.60;24.93;;;;;;;14.06;64.89;99939.23;147584;1147;104844;-75
2021/04/01 07:35:28;;;;;;;44.93;27.70;;;;;;;14.82;63.91;99936.37;147530;1147;104602;-74
2021/04/01 07:49:05;;;;;;;39.45;25.72;;;;;;;14.94;62.97;99927.82;147345;1150;104634;-79
2021/04/01 07:52:10;;;;;;;32.65;21.40;;;;;;;14.97;63.31;99922.05;147732;1147;104575;-76
2021/04/01 07:55:22;;;;;;;30.52;20.00;;;;;;;14.98;63.32;99918.36;147672;1147;104527;-76
2021/04/01 08:02:04;;;;;;;30.57;19.73;;;;;;;15.17;62.95;99912.35;147732;1147;104531;-73
2021/04/01 08:05:08;;;;;;;30.80;19.75;;;;;;;15.34;62.21;99901.33;147679;1147;104658;-75
2021/04/01 08:08:12;;;;;;;30.92;19.75;;;;;;;15.50;61.91;99896.52;147727;1147;104454;-74
2021/04/01 08:11:25;;;;;;;28.57;19.37;;;;;;;15.67;62.33;99891.70;147631;1148;104565;-73
2021/04/01 08:14:36;;;;;;;30.65;20.20;;;;;;;15.90;61.92;99882.59;147803;1147;104888;-75
2021/04/01 08:17:49;;;;;;;30.97;19.27;;;;;;;16.13;61.76;99874.23;147735;1147;104552;-75
2021/04/01 08:20:56;;;;;;;33.88;20.50;;;;;;;16.38;60.62;99874.56;147747;1148;104477;-73
2021/04/01 08:24:05;;;;;;;28.55;18.32;;;;;;;16.57;61.34;99880.22;147848;1147;104407;-75
2021/04/01 08:27:21;;;;;;;30.52;19.87;;;;;;;16.68;60.81;99876.95;147731;1147;104656;-75
2021/04/01 08:34:11;;;;;;;24.03;16.47;;;;;;;16.72;61.04;99872.81;147747;1147;104546;-73
2021/04/01 08:37:17;;;;;;;28.77;19.00;;;;;;;16.69;60.46;99862.45;147627;1147;104475;-73
2021/04/01 08:40:20;;;;;;;26.02;17.60;;;;;;;16.68;60.57;99866.17;147641;1146;104476;-73
2021/04/01 08:43:49;;;;;;;27.55;18.00;;;;;;;16.64;60.34;99863.05;147524;1147;104547;-73
2021/04/01 08:47:05;;;;;;;28.03;16.27;;;;;;;16.58;60.56;99868.42;147675;1146;104476;-73
2021/04/01 08:50:26;;;;;;;24.07;16.30;;;;;;;16.56;60.32;99862.41;147419;1147;104458;-72
2021/04/01 08:53:35;;;;;;;;;;;;;;;16.56;59.86;99859.72;147358;1147;104974;-74
2021/04/01 08:56:43;;;;;;;24.40;15.78;;;;;;;16.55;60.25;99858.04;147393;1147;104476;-73
2021/04/01 08:59:58;;;;;;;29.12;16.10;;;;;;;16.58;60.05;99854.95;147727;1146;104543;-71
2021/04/01 09:03:02;;;;;;;29.67;16.73;;;;;;;16.62;59.61;99842.73;147768;1147;104476;-71
2021/04/01 09:06:09;;;;;;;24.65;15.58;;;;;;;16.67;59.78;99846.48;147647;1146;104557;-74
2021/04/01 09:09:14;;;;;;;24.65;15.18;;;;;;;16.73;59.59;99842.16;147607;1148;104525;-72
2021/04/01 09:12:21;;;;;;;25.35;16.00;;;;;;;16.78;59.53;99838.83;147764;1148;104483;-72
2021/04/01 09:15:34;;;;;;;26.05;15.55;;;;;;;16.90;59.44;99831.01;147573;1147;104534;-71
2021/04/01 09:18:38;;;;;;;26.45;15.63;;;;;;;17.05;59.26;99823.56;147213;1147;104548;-72
2021/04/01 09:21:44;;;;;;;22.80;13.83;;;;;;;17.18;59.50;99831.66;147792;1147;104457;-73
2021/04/01 09:24:53;;;;;;;21.52;14.10;;;;;;;17.38;58.89;99820.90;147587;1147;104497;-78
2021/04/01 09:28:06;;;;;;;22.77;14.77;;;;;;;17.61;58.20;99823.16;147555;1147;104918;-72
2021/04/01 09:31:11;;;;;;;24.73;14.90;;;;;;;17.94;57.87;99816.07;147692;1146;104613;-73
2021/04/01 09:34:18;;;;;;;24.72;15.03;;;;;;;18.20;57.71;99809.73;147765;1146;104453;-72
2021/04/01 09:37:21;;;;;;;25.52;14.95;;;;;;;18.42;57.03;99800.29;147686;1147;104499;-74
2021/04/01 09:40:32;;;;;;;25.20;16.10;;;;;;;18.62;57.66;99799.34;147483;1146;104546;-73
2021/04/01 09:43:35;;;;;;;25.97;14.53;;;;;;;18.73;56.82;99790.55;147528;1147;104585;-72
2021/04/01 09:46:56;;;;;;;23.50;13.95;;;;;;;18.87;56.84;99798.60;147629;1147;104572;-72
2021/04/01 09:50:04;;;;;;;25.55;13.38;;;;;;;18.95;56.36;99801.03;147778;1147;104448;-72
2021/04/01 09:53:12;;;;;;;23.65;12.25;;;;;;;19.03;53.32;99793.50;147782;1147;104464;-73
2021/04/01 09:56:22;;;;;;;22.80;12.68;;;;;;;19.14;52.09;99800.05;147293;1147;105022;-73
2021/04/01 09:59:39;;;;;;;20.37;12.18;;;;;;;19.28;54.17;99794.53;147261;1147;104496;-70
2021/04/01 10:02:51;;;;;;;22.95;13.43;;;;;;;19.39;54.01;99786.52;147693;1147;104572;-72
2021/04/01 10:05:54;;;;;;;24.80;14.83;;;;;;;19.49;54.42;99780.59;147791;1147;104474;-73
2021/04/01 10:09:09;;;;;;;23.65;12.73;;;;;;;19.48;50.80;99784.36;147683;1146;104476;-74
2021/04/01 10:12:15;;;;;;;23.45;12.03;;;;;;;19.47;51.14;99782.69;147657;1146;104538;-73
2021/04/01 10:15:30;;;;;;;20.90;11.40;;;;;;;19.46;51.71;99783.76;147822;1147;104532;-72
2021/04/01 10:18:36;;;;;;;23.65;12.58;;;;;;;19.45;49.30;99784.80;147644;1146;104620;-71
2021/04/01 10:21:45;;;;;;;24.55;12.55;;;;;;;19.46;47.60;99785.61;148889;1146;104485;-72
2021/04/01 10:25:01;;;;;;;22.03;12.47;;;;;;;19.47;49.68;99781.88;147327;1147;104655;-68
2021/04/01 10:28:11;;;;;;;25.45;14.15;;;;;;;19.45;49.93;99778.56;147459;1147;105548;-71
2021/04/01 10:31:19;;;;;;;24.60;13.63;;;;;;;19.36;50.31;99780.71;147470;1146;104453;-74
2021/04/01 10:34:35;;;;;;;24.23;13.98;;;;;;;19.30;50.54;99779.72;147556;1147;104721;-74
2021/04/01 10:37:46;;;;;;;25.37;13.27;;;;;;;19.23;49.94;99770.86;147549;1147;104548;-74
2021/04/01 10:40:50;;;;;;;25.50;14.03;;;;;;;19.20;49.49;99769.41;147690;1148;104469;-74
2021/04/01 10:43:59;;;;;;;21.15;11.63;;;;;;;19.20;51.11;99764.00;147758;1148;104583;-76
2021/04/01 10:47:05;;;;;;;23.93;13.13;;;;;;;19.20;48.53;99755.88;147820;1147;104470;-77
2021/04/01 10:50:10;;;;;;;20.40;12.23;;;;;;;19.22;48.49;99753.78;147817;1146;104575;-76
2021/04/01 10:53:21;;;;;;;19.75;10.90;;;;;;;19.28;47.49;99749.36;147588;1146;104439;-76
2021/04/01 10:56:24;;;;;;;22.67;11.22;;;;;;;19.31;46.32;99746.23;147720;1147;104551;-77
2021/04/01 10:59:47;;;;;;;17.32;10.18;;;;;;;19.29;46.17;99736.69;147682;1148;104444;-78
2021/04/01 11:02:55;;;;;;;20.80;10.73;;;;;;;19.26;47.76;99737.94;147732;1148;104534;-78
2021/04/01 11:06:01;;;;;;;19.77;10.48;;;;;;;19.27;45.72;99739.61;147768;1148;104509;-79
2021/04/01 11:09:09;;;;;;;17.35;10.10;;;;;;;19.28;47.03;99737.72;147791;1147;104498;-78
2021/04/01 11:12:17;;;;;;;16.47;10.07;;;;;;;19.27;47.68;99730.67;147807;1148;104470;-79
2021/04/01 11:15:24;;;;;;;18.02;10.35;;;;;;;19.21;45.70;99735.09;147747;1147;104576;-79
2021/04/01 11:18:29;;;;;;;17.52;10.23;;;;;;;19.18;46.34;99722.01;147317;1146;104579;-79
2021/04/01 11:21:34;;;;;;;18.62;10.15;;;;;;;19.20;46.06;99723.42;147373;1146;104544;-77
2021/04/01 11:24:39;;;;;;;21.85;11.33;;;;;;;19.21;45.92;99725.09;147439;1147;104548;-79
2021/04/01 11:27:52;;;;;;;19.35;11.43;;;;;;;19.22;46.14;99715.09;147449;1147;104535;-79
2021/04/01 11:30:56;;;;;;;21.95;11.63;;;;;;;19.26;46.14;99713.59;147374;1147;104473;-79
2021/04/01 11:34:00;;;;;;;20.23;10.68;;;;;;;19.33;46.20;99713.55;147534;1147;104483;-79
2021/04/01 11:37:04;;;;;;;17.42;10.88;;;;;;;19.39;45.74;99705.34;147420;1147;104577;-79
2021/04/01 11:40:09;;;;;;;20.03;11.13;;;;;;;19.44;45.20;99707.40;147444;1147;104517;-79
2021/04/01 11:43:13;;;;;;;20.27;11.18;;;;;;;19.46;45.39;99697.17;147863;1147;104580;-81
2021/04/01 11:46:20;;;;;;;21.80;11.90;;;;;;;19.46;44.25;99704.44;147630;1147;104535;-84
2021/04/01 11:49:23;;;;;;;19.57;10.83;;;;;;;19.44;42.75;99699.28;147987;1146;104447;-82
2021/04/01 11:52:26;;;;;;;18.47;10.63;;;;;;;19.51;43.41;99697.30;147750;1146;104466;-80
2021/04/01 11:55:30;;;;;;;19.07;11.63;;;;;;;19.59;43.84;99694.32;147803;1147;104469;-80
2021/04/01 11:58:34;;;;;;;18.80;11.03;;;;;;;19.71;43.13;99691.67;147633;1147;104423;-79
2021/04/01 12:01:47;;;;;;;17.37;11.05;;;;;;;19.78;43.83;99695.17;147593;1147;104540;-75
2021/04/01 12:04:53;;;;;;;17.70;10.32;;;;;;;19.89;43.30;99690.03;147684;1146;104547;-75
2021/04/01 12:07:57;;;;;;;17.63;11.03;;;;;;;19.97;42.41;99687.82;147693;1146;104581;-74
2021/04/01 12:11:00;;;;;;;18.85;11.75;;;;;;;19.99;41.79;99688.42;147769;1146;104435;-76
2021/04/01 12:14:08;;;;;;;16.33;10.47;;;;;;;20.01;36.38;99696.31;147759;1147;104482;-75
2021/04/01 12:17:11;;;;;;;17.90;9.63;;;;;;;20.05;41.19;99683.16;147829;1148;104558;-76
2021/04/01 12:20:16;;;;;;;17.98;10.18;;;;;;;20.12;41.84;99678.47;147434;1147;104565;-75
2021/04/01 12:23:24;;;;;;;19.05;10.20;;;;;;;20.23;41.65;99672.28;147577;1146;104615;-75
2021/04/01 12:26:29;;;;;;;17.35;9.95;;;;;;;20.36;41.17;99676.66;147728;1147;104546;-75
2021/04/01 12:29:34;;;;;;;16.57;9.18;;;;;;;20.49;36.91;99678.34;147717;1146;104981;-76
2021/04/01 12:32:41;;;;;;;14.97;9.70;;;;;;;20.64;40.93;99657.07;147718;1147;104546;-76
2021/04/01 12:35:54;;;;;;;16.83;9.73;;;;;;;20.77;40.93;99666.88;147784;1147;104489;-76
2021/04/01 12:38:58;;;;;;;16.32;10.95;;;;;;;20.90;40.53;99661.23;147486;1147;104559;-76
2021/04/01 12:42:02;;;;;;;16.05;10.23;;;;;;;21.00;39.54;99660.64;147724;1147;104534;-75
2021/04/01 12:45:17;;;;;;;14.07;9.23;;;;;;;21.06;39.51;99650.73;147491;1147;104375;-76
2021/04/01 12:48:20;;;;;;;16.27;10.85;;;;;;;21.02;37.96;99653.09;147856;1147;104473;-75
2021/04/01 12:51:25;;;;;;;15.05;10.08;;;;;;;21.03;39.57;99649.30;147503;1147;104485;-76
2021/04/01 12:54:33;;;;;;;16.27;9.98;;;;;;;21.05;39.51;99647.17;147552;1147;104812;-75
2021/04/01 12:57:42;;;;;;;15.78;10.20;;;;;;;21.14;38.89;99640.33;147765;1146;104486;-76
2021/04/01 13:00:46;;;;;;;16.03;10.60;;;;;;;21.19;39.09;99647.77;147702;1147;104535;-74
2021/04/01 13:03:50;;;;;;;16.93;10.72;;;;;;;21.22;39.15;99635.61;147613;1147;104565;-76
2021/04/01 13:06:57;;;;;;;17.37;11.30;;;;;;;21.21;38.30;99625.80;147822;1146;104470;-75
2021/04/01 13:10:11;;;;;;;15.93;9.90;;;;;;;21.20;35.49;99626.88;147737;1146;104624;-76
2021/04/01 13:13:14;;;;;;;15.30;9.63;;;;;;;21.17;37.35;99628.16;148238;1147;104545;-74
2021/04/01 13:16:18;;;;;;;18.82;10.85;;;;;;;21.13;34.12;99625.13;147956;1146;104895;-75
2021/04/01 13:19:21;;;;;;;15.43;10.53;;;;;;;21.20;36.75;99626.88;147331;1147;104515;-75
2021/04/01 13:22:27;;;;;;;18.98;12.47;;;;;;;21.18;33.76;99625.22;147553;1146;104550;-76
2021/04/01 13:25:30;;;;;;;21.52;12.53;;;;;;;21.11;33.26;99631.84;147813;1146;104622;-75
2021/04/01 13:28:34;;;;;;;18.67;13.05;;;;;;;21.08;36.06;99603.30;147789;1148;104492;-76
2021/04/01 13:31:44;;;;;;;19.60;12.98;;;;;;;21.07;32.66;99611.67;147717;1147;104858;-74
2021/04/01 13:34:51;;;;;;;19.45;12.13;;;;;;;21.10;34.76;99597.65;147580;1146;104495;-76
2021/04/01 13:37:59;;;;;;;17.82;11.57;;;;;;;21.08;36.69;99607.91;147764;1147;104483;-76
2021/04/01 13:41:02;;;;;;;19.67;13.08;;;;;;;21.04;35.24;99602.14;147868;1147;104531;-76
2021/04/01 13:44:08;;;;;;;22.15;13.58;;;;;;;20.96;33.56;99597.09;147786;1147;104521;-76
2021/04/01 13:47:12;;;;;;;19.73;12.88;;;;;;;20.86;36.21;99602.26;147742;1147;104552;-74
2021/04/01 13:50:16;;;;;;;21.55;14.03;;;;;;;20.73;34.47;99600.63;147717;1147;104491;-74
2021/04/01 13:53:29;;;;;;;22.32;14.65;;;;;;;20.65;35.21;99638.91;147769;1148;104486;-74
2021/04/01 13:56:41;;;;;;;22.23;15.03;;;;;;;20.51;36.09;99622.84;147654;1147;105116;-73
2021/04/01 14:00:15;;;;;;;25.92;16.00;;;;;;;20.37;36.86;99627.66;147817;1147;104473;-73
2021/04/01 14:10:35;;;;;;;25.13;14.20;;;;;;;19.58;35.79;99643.13;147284;1148;104636;-74
2021/04/01 14:13:38;;;;;;;26.90;15.23;;;;;;;19.40;36.12;99642.08;147913;1146;104540;-74
2021/04/01 14:16:41;;;;;;;23.83;14.70;;;;;;;19.37;36.93;99652.53;147733;1148;104487;-77
2021/04/01 14:19:46;;;;;;;26.20;15.65;;;;;;;19.37;36.50;99644.41;147754;1147;104519;-75
2021/04/01 14:22:50;;;;;;;27.65;15.43;;;;;;;19.35;36.44;99654.63;147717;1148;104487;-74
2021/04/01 14:25:57;;;;;;;24.93;14.60;;;;;;;19.32;36.75;99644.25;147849;1147;104522;-75
2021/04/01 14:29:00;;;;;;;27.93;16.90;;;;;;;19.21;37.31;99645.84;147690;1148;104511;-76
2021/04/01 14:32:05;;;;;;;28.43;15.77;;;;;;;19.13;37.31;99646.97;147599;1147;104526;-75
2021/04/01 14:35:11;;;;;;;28.92;19.17;;;;;;;19.00;38.19;99657.91;147645;1147;104547;-75
2021/04/01 14:38:16;;;;;;;24.87;14.75;;;;;;;18.83;37.87;99663.88;147590;1147;104560;-74
2021/04/01 14:41:26;;;;;;;24.60;14.53;;;;;;;18.69;37.15;99665.02;147745;1146;104544;-75
2021/04/01 14:44:30;;;;;;;22.55;14.47;;;;;;;18.58;38.86;99668.44;147712;1147;104612;-73
2021/04/01 14:47:34;;;;;;;26.80;15.55;;;;;;;18.39;38.53;99679.16;147795;1148;104549;-74
2021/04/01 14:50:37;;;;;;;29.45;15.65;;;;;;;18.31;39.39;99682.13;147725;1147;104552;-74
2021/04/01 14:53:47;;;;;;;28.83;18.35;;;;;;;18.23;39.84;99663.48;147711;1148;104455;-75
2021/04/01 14:56:53;;;;;;;31.70;20.00;;;;;;;18.13;40.06;99676.62;147761;1146;104569;-74
2021/04/01 14:59:58;;;;;;;27.87;18.23;;;;;;;18.01;40.66;99681.87;147813;1148;104563;-73